sensor_id;sensor_type;location;lat;lon;timestamp;pressure;altitude;pressure_sealevel;temperature;humidity
7524;BME280;3803;51.666;7.630;2024-01-15T00:00:07;99570.47;;;5.05;58.65
7524;BME280;3803;51.666;7.630;2024-01-15T00:00:31;99555.09;;;5.10;59.33
7524;BME280;3803;51.666;7.630;2024-01-15T00:00:52;99561.88;;;5.06;58.53
7524;BME280;3803;51.666;7.630;2024-01-15T00:01:12;99575.09;;;5.15;58.64
7524;BME280;3803;51.666;7.630;2024-01-15T00:01:33;99576.66;;;5.10;58.54
7524;BME280;3803;51.666;7.630;2024-01-15T00:01:53;99565.56;;;5.14;58.98
7524;BME280;3803;51.666;7.630;2024-01-15T00:02:14;99568.16;;;5.14;58.87
7524;BME280;3803;51.666;7.630;2024-01-15T00:02:34;99552.56;;;5.11;59.04
7524;BME280;3803;51.666;7.630;2024-01-15T00:02:55;99556.13;;;5.16;58.87
7524;BME280;3803;51.666;7.630;2024-01-15T00:03:15;99559.69;;;5.18;58.77
7524;BME280;3803;51.666;7.630;2024-01-15T00:03:36;99555.31;;;5.17;58.63
7524;BME280;3803;51.666;7.630;2024-01-15T00:03:57;99565.00;;;5.25;58.52
7524;BME280;3803;51.666;7.630;2024-01-15T00:04:17;99556.41;;;5.26;58.60
7524;BME280;3803;51.666;7.630;2024-01-15T00:04:39;99553.88;;;5.27;58.83
7524;BME280;3803;51.666;7.630;2024-01-15T00:05:00;99544.25;;;5.22;58.75
7524;BME280;3803;51.666;7.630;2024-01-15T00:05:21;99542.38;;;5.17;58.60
7524;BME280;3803;51.666;7.630;2024-01-15T00:05:41;99546.56;;;5.12;58.90
7524;BME280;3803;51.666;7.630;2024-01-15T00:06:02;99551.09;;;5.19;58.95
7524;BME280;3803;51.666;7.630;2024-01-15T00:06:23;99548.44;;;5.18;58.79
7524;BME280;3803;51.666;7.630;2024-01-15T00:06:44;99547.56;;;5.17;58.43
7524;BME280;3803;51.666;7.630;2024-01-15T00:07:07;99556.19;;;5.18;58.51
7524;BME280;3803;51.666;7.630;2024-01-15T00:07:28;99538.88;;;5.15;58.61
7524;BME280;3803;51.666;7.630;2024-01-15T00:07:49;99539.38;;;5.03;59.05
7524;BME280;3803;51.666;7.630;2024-01-15T00:08:10;99549.84;;;5.08;58.81
7524;BME280;3803;51.666;7.630;2024-01-15T00:08:30;99554.19;;;5.09;58.69
7524;BME280;3803;51.666;7.630;2024-01-15T00:08:51;99542.22;;;5.11;59.15
7524;BME280;3803;51.666;7.630;2024-01-15T00:09:11;99551.09;;;5.19;58.87
7524;BME280;3803;51.666;7.630;2024-01-15T00:09:32;99545.78;;;5.16;58.84
7524;BME280;3803;51.666;7.630;2024-01-15T00:09:52;99545.66;;;5.12;59.21
7524;BME280;3803;51.666;7.630;2024-01-15T00:10:13;99550.81;;;5.10;58.86
7524;BME280;3803;51.666;7.630;2024-01-15T00:10:33;99540.34;;;5.07;58.92
7524;BME280;3803;51.666;7.630;2024-01-15T00:10:59;99550.09;;;5.16;59.14
7524;BME280;3803;51.666;7.630;2024-01-15T00:11:19;99540.59;;;5.15;58.96
7524;BME280;3803;51.666;7.630;2024-01-15T00:11:40;99535.44;;;5.16;59.02
7524;BME280;3803;51.666;7.630;2024-01-15T00:12:01;99538.81;;;5.14;58.87
7524;BME280;3803;51.666;7.630;2024-01-15T00:12:23;99543.06;;;5.12;59.06
7524;BME280;3803;51.666;7.630;2024-01-15T00:12:43;99541.41;;;5.14;58.79
7524;BME280;3803;51.666;7.630;2024-01-15T00:13:04;99530.91;;;5.07;58.75
7524;BME280;3803;51.666;7.630;2024-01-15T00:13:24;99561.31;;;5.16;58.89
7524;BME280;3803;51.666;7.630;2024-01-15T00:13:45;99555.03;;;5.08;58.84
7524;BME280;3803;51.666;7.630;2024-01-15T00:14:06;99540.47;;;5.10;58.86
7524;BME280;3803;51.666;7.630;2024-01-15T00:14:27;99553.63;;;5.18;58.76
7524;BME280;3803;51.666;7.630;2024-01-15T00:14:48;99528.53;;;5.15;58.92
7524;BME280;3803;51.666;7.630;2024-01-15T00:15:08;99542.50;;;5.20;58.93
7524;BME280;3803;51.666;7.630;2024-01-15T00:15:29;99538.16;;;5.19;58.78
7524;BME280;3803;51.666;7.630;2024-01-15T00:15:50;99540.63;;;5.16;58.74
7524;BME280;3803;51.666;7.630;2024-01-15T00:16:11;99541.78;;;5.26;58.76
7524;BME280;3803;51.666;7.630;2024-01-15T00:16:32;99532.03;;;5.17;58.74
7524;BME280;3803;51.666;7.630;2024-01-15T00:16:52;99533.81;;;5.18;58.93
7524;BME280;3803;51.666;7.630;2024-01-15T00:17:15;99538.22;;;5.23;58.79
7524;BME280;3803;51.666;7.630;2024-01-15T00:17:36;99540.91;;;5.26;58.74
7524;BME280;3803;51.666;7.630;2024-01-15T00:17:56;99541.59;;;5.20;58.78
7524;BME280;3803;51.666;7.630;2024-01-15T00:18:17;99532.97;;;5.19;59.01
7524;BME280;3803;51.666;7.630;2024-01-15T00:18:37;99548.50;;;5.19;58.80
7524;BME280;3803;51.666;7.630;2024-01-15T00:18:58;99525.88;;;5.12;58.99
7524;BME280;3803;51.666;7.630;2024-01-15T00:19:19;99547.47;;;5.14;58.88
7524;BME280;3803;51.666;7.630;2024-01-15T00:19:39;99537.97;;;5.13;58.98
7524;BME280;3803;51.666;7.630;2024-01-15T00:20:00;99545.91;;;5.19;59.26
7524;BME280;3803;51.666;7.630;2024-01-15T00:20:20;99539.16;;;5.25;58.66
7524;BME280;3803;51.666;7.630;2024-01-15T00:20:41;99526.13;;;5.22;58.97
7524;BME280;3803;51.666;7.630;2024-01-15T00:21:01;99549.59;;;5.28;58.91
7524;BME280;3803;51.666;7.630;2024-01-15T00:21:22;99531.38;;;5.25;58.92
7524;BME280;3803;51.666;7.630;2024-01-15T00:21:44;99542.56;;;5.24;58.90
7524;BME280;3803;51.666;7.630;2024-01-15T00:22:05;99541.84;;;5.28;58.81
7524;BME280;3803;51.666;7.630;2024-01-15T00:22:25;99532.94;;;5.18;59.00
7524;BME280;3803;51.666;7.630;2024-01-15T00:22:47;99533.97;;;5.25;59.01
7524;BME280;3803;51.666;7.630;2024-01-15T00:23:07;99545.41;;;5.31;58.88
7524;BME280;3803;51.666;7.630;2024-01-15T00:23:28;99539.34;;;5.31;58.94
7524;BME280;3803;51.666;7.630;2024-01-15T00:23:49;99544.56;;;5.32;59.09
7524;BME280;3803;51.666;7.630;2024-01-15T00:24:09;99543.53;;;5.27;58.96
7524;BME280;3803;51.666;7.630;2024-01-15T00:24:30;99530.41;;;5.19;58.92
7524;BME280;3803;51.666;7.630;2024-01-15T00:24:51;99536.34;;;5.17;58.66
7524;BME280;3803;51.666;7.630;2024-01-15T00:25:11;99548.56;;;5.23;58.62
7524;BME280;3803;51.666;7.630;2024-01-15T00:25:32;99538.09;;;5.18;59.07
7524;BME280;3803;51.666;7.630;2024-01-15T00:25:52;99535.44;;;5.16;58.76
7524;BME280;3803;51.666;7.630;2024-01-15T00:26:13;99537.13;;;5.14;59.25
7524;BME280;3803;51.666;7.630;2024-01-15T00:26:34;99543.28;;;5.18;58.94
7524;BME280;3803;51.666;7.630;2024-01-15T00:26:54;99537.41;;;5.24;58.84
7524;BME280;3803;51.666;7.630;2024-01-15T00:27:15;99537.50;;;5.27;59.08
7524;BME280;3803;51.666;7.630;2024-01-15T00:27:36;99538.41;;;5.29;58.86
7524;BME280;3803;51.666;7.630;2024-01-15T00:27:57;99540.13;;;5.28;58.58
7524;BME280;3803;51.666;7.630;2024-01-15T00:28:18;99535.00;;;5.30;58.86
7524;BME280;3803;51.666;7.630;2024-01-15T00:28:38;99531.56;;;5.31;58.83
7524;BME280;3803;51.666;7.630;2024-01-15T00:28:59;99529.75;;;5.27;58.44
7524;BME280;3803;51.666;7.630;2024-01-15T00:29:20;99534.16;;;5.31;58.85
7524;BME280;3803;51.666;7.630;2024-01-15T00:29:41;99542.06;;;5.36;58.82
7524;BME280;3803;51.666;7.630;2024-01-15T00:30:01;99532.28;;;5.25;58.83
7524;BME280;3803;51.666;7.630;2024-01-15T00:30:22;99545.06;;;5.20;58.74
7524;BME280;3803;51.666;7.630;2024-01-15T00:30:42;99528.84;;;5.26;58.91
7524;BME280;3803;51.666;7.630;2024-01-15T00:31:04;99542.06;;;5.36;58.69
7524;BME280;3803;51.666;7.630;2024-01-15T00:31:25;99533.13;;;5.26;58.82
7524;BME280;3803;51.666;7.630;2024-01-15T00:31:46;99542.81;;;5.31;58.71
7524;BME280;3803;51.666;7.630;2024-01-15T00:32:07;99544.44;;;5.28;58.83
7524;BME280;3803;51.666;7.630;2024-01-15T00:32:28;99539.28;;;5.29;58.81
7524;BME280;3803;51.666;7.630;2024-01-15T00:32:48;99535.78;;;5.27;58.45
7524;BME280;3803;51.666;7.630;2024-01-15T00:33:09;99534.09;;;5.28;58.72
7524;BME280;3803;51.666;7.630;2024-01-15T00:33:32;99534.94;;;5.28;58.82
7524;BME280;3803;51.666;7.630;2024-01-15T00:33:53;99536.63;;;5.26;58.90
7524;BME280;3803;51.666;7.630;2024-01-15T00:34:13;99542.69;;;5.28;58.81
7524;BME280;3803;51.666;7.630;2024-01-15T00:34:34;99537.53;;;5.28;59.06
7524;BME280;3803;51.666;7.630;2024-01-15T00:34:54;99536.81;;;5.32;59.29
7524;BME280;3803;51.666;7.630;2024-01-15T00:35:15;99533.19;;;5.27;58.78
7524;BME280;3803;51.666;7.630;2024-01-15T00:35:36;99532.50;;;5.33;58.65
7524;BME280;3803;51.666;7.630;2024-01-15T00:35:57;99533.25;;;5.29;58.75
7524;BME280;3803;51.666;7.630;2024-01-15T00:36:17;99537.41;;;5.24;59.20
7524;BME280;3803;51.666;7.630;2024-01-15T00:36:38;99530.66;;;5.29;58.99
7524;BME280;3803;51.666;7.630;2024-01-15T00:36:59;99534.16;;;5.31;58.88
7524;BME280;3803;51.666;7.630;2024-01-15T00:37:19;99528.97;;;5.31;59.07
7524;BME280;3803;51.666;7.630;2024-01-15T00:37:40;99533.31;;;5.32;58.72
7524;BME280;3803;51.666;7.630;2024-01-15T00:38:00;99536.75;;;5.31;58.76
7524;BME280;3803;51.666;7.630;2024-01-15T00:38:21;99540.22;;;5.31;59.11
7524;BME280;3803;51.666;7.630;2024-01-15T00:38:48;99541.28;;;5.38;58.84
7524;BME280;3803;51.666;7.630;2024-01-15T00:39:11;99525.50;;;5.29;58.90
7524;BME280;3803;51.666;7.630;2024-01-15T00:39:31;99538.50;;;5.32;59.06
7524;BME280;3803;51.666;7.630;2024-01-15T00:39:52;99522.78;;;5.24;58.61
7524;BME280;3803;51.666;7.630;2024-01-15T00:40:12;99529.69;;;5.25;58.87
7524;BME280;3803;51.666;7.630;2024-01-15T00:40:33;99533.97;;;5.25;59.28
7524;BME280;3803;51.666;7.630;2024-01-15T00:40:54;99525.25;;;5.21;58.96
7524;BME280;3803;51.666;7.630;2024-01-15T00:41:15;99530.66;;;5.29;59.10
7524;BME280;3803;51.666;7.630;2024-01-15T00:41:36;99531.38;;;5.25;59.16
7524;BME280;3803;51.666;7.630;2024-01-15T00:41:56;99536.69;;;5.29;58.95
7524;BME280;3803;51.666;7.630;2024-01-15T00:42:17;99528.94;;;5.29;58.88
7524;BME280;3803;51.666;7.630;2024-01-15T00:42:38;99537.72;;;5.34;58.95
7524;BME280;3803;51.666;7.630;2024-01-15T00:42:58;99527.22;;;5.30;58.85
7524;BME280;3803;51.666;7.630;2024-01-15T00:43:19;99533.31;;;5.30;59.35
7524;BME280;3803;51.666;7.630;2024-01-15T00:44:05;99548.81;;;5.30;59.09
7524;BME280;3803;51.666;7.630;2024-01-15T00:44:28;99543.41;;;5.23;59.09
7524;BME280;3803;51.666;7.630;2024-01-15T00:44:49;99533.75;;;5.17;58.96
7524;BME280;3803;51.666;7.630;2024-01-15T00:45:09;99541.78;;;5.26;59.25
7524;BME280;3803;51.666;7.630;2024-01-15T00:45:30;99536.66;;;5.28;59.07
7524;BME280;3803;51.666;7.630;2024-01-15T00:45:50;99543.78;;;5.35;59.10
7524;BME280;3803;51.666;7.630;2024-01-15T00:46:11;99528.06;;;5.29;59.04
7524;BME280;3803;51.666;7.630;2024-01-15T00:46:31;99529.88;;;5.31;58.93
7524;BME280;3803;51.666;7.630;2024-01-15T00:46:52;99539.59;;;5.40;59.27
7524;BME280;3803;51.666;7.630;2024-01-15T00:47:12;99539.59;;;5.40;58.98
7524;BME280;3803;51.666;7.630;2024-01-15T00:55:52;99535.31;;;5.41;58.72
7524;BME280;3803;51.666;7.630;2024-01-15T00:56:14;99534.44;;;5.40;59.09
7524;BME280;3803;51.666;7.630;2024-01-15T00:56:34;99530.03;;;5.38;58.53
7524;BME280;3803;51.666;7.630;2024-01-15T00:56:55;99524.84;;;5.38;58.80
7524;BME280;3803;51.666;7.630;2024-01-15T00:57:15;99519.91;;;5.45;59.14
7524;BME280;3803;51.666;7.630;2024-01-15T00:57:54;99524.91;;;5.39;58.88
7524;BME280;3803;51.666;7.630;2024-01-15T00:58:15;99524.25;;;5.46;58.84
7524;BME280;3803;51.666;7.630;2024-01-15T00:58:36;99527.69;;;5.45;58.56
7524;BME280;3803;51.666;7.630;2024-01-15T00:58:57;99523.25;;;5.41;58.73
7524;BME280;3803;51.666;7.630;2024-01-15T00:59:17;99528.47;;;5.43;58.44
7524;BME280;3803;51.666;7.630;2024-01-15T00:59:43;99524.34;;;5.50;58.79
7524;BME280;3803;51.666;7.630;2024-01-15T01:00:04;99524.06;;;5.40;58.78
7524;BME280;3803;51.666;7.630;2024-01-15T01:00:25;99523.25;;;5.41;58.88
7524;BME280;3803;51.666;7.630;2024-01-15T01:00:45;99530.94;;;5.38;58.79
7524;BME280;3803;51.666;7.630;2024-01-15T01:01:06;99530.88;;;5.37;59.11
7524;BME280;3803;51.666;7.630;2024-01-15T01:01:26;99521.34;;;5.36;58.71
7524;BME280;3803;51.666;7.630;2024-01-15T01:01:47;99512.75;;;5.37;58.81
7524;BME280;3803;51.666;7.630;2024-01-15T01:02:07;99525.03;;;5.42;58.88
7524;BME280;3803;51.666;7.630;2024-01-15T01:02:28;99519.66;;;5.36;58.86
7524;BME280;3803;51.666;7.630;2024-01-15T01:02:49;99527.59;;;5.42;58.82
7524;BME280;3803;51.666;7.630;2024-01-15T01:03:09;99536.47;;;5.51;58.84
7524;BME280;3803;51.666;7.630;2024-01-15T01:03:30;99529.44;;;5.46;59.07
7524;BME280;3803;51.666;7.630;2024-01-15T01:03:50;99526.78;;;5.43;58.59
7524;BME280;3803;51.666;7.630;2024-01-15T01:04:11;99521.66;;;5.46;58.97
7524;BME280;3803;51.666;7.630;2024-01-15T01:04:32;99525.81;;;5.40;58.52
7524;BME280;3803;51.666;7.630;2024-01-15T01:04:52;99524.19;;;5.45;58.74
7524;BME280;3803;51.666;7.630;2024-01-15T01:05:13;99525.81;;;5.41;58.66
7524;BME280;3803;51.666;7.630;2024-01-15T01:05:36;99529.16;;;5.37;58.87
7524;BME280;3803;51.666;7.630;2024-01-15T01:05:58;99534.53;;;5.43;59.12
7524;BME280;3803;51.666;7.630;2024-01-15T01:06:18;99527.31;;;5.33;58.77
7524;BME280;3803;51.666;7.630;2024-01-15T01:06:39;99522.94;;;5.30;58.88
7524;BME280;3803;51.666;7.630;2024-01-15T01:07:00;99522.28;;;5.38;59.01
7524;BME280;3803;51.666;7.630;2024-01-15T01:07:20;99523.34;;;5.44;58.83
7524;BME280;3803;51.666;7.630;2024-01-15T01:07:41;99527.56;;;5.41;58.68
7524;BME280;3803;51.666;7.630;2024-01-15T01:08:02;99543.13;;;5.42;59.04
7524;BME280;3803;51.666;7.630;2024-01-15T01:08:22;99533.56;;;5.40;58.99
7524;BME280;3803;51.666;7.630;2024-01-15T01:08:43;99528.47;;;5.43;58.83
7524;BME280;3803;51.666;7.630;2024-01-15T01:09:03;99523.34;;;5.44;58.95
7524;BME280;3803;51.666;7.630;2024-01-15T01:09:25;99524.19;;;5.43;58.92
7524;BME280;3803;51.666;7.630;2024-01-15T01:09:45;99522.50;;;5.45;58.97
7524;BME280;3803;51.666;7.630;2024-01-15T01:10:06;99528.59;;;5.47;58.86
7524;BME280;3803;51.666;7.630;2024-01-15T01:10:27;99522.59;;;5.48;58.98
7524;BME280;3803;51.666;7.630;2024-01-15T01:10:48;99529.34;;;5.43;58.96
7524;BME280;3803;51.666;7.630;2024-01-15T01:11:13;99519.78;;;5.41;58.93
7524;BME280;3803;51.666;7.630;2024-01-15T01:11:33;99526.66;;;5.40;59.29
7524;BME280;3803;51.666;7.630;2024-01-15T01:11:54;99523.28;;;5.43;59.03
7524;BME280;3803;51.666;7.630;2024-01-15T01:12:14;99522.25;;;5.36;58.77
7524;BME280;3803;51.666;7.630;2024-01-15T01:12:35;99526.59;;;5.37;58.94
7524;BME280;3803;51.666;7.630;2024-01-15T01:12:56;99514.34;;;5.31;58.99
7524;BME280;3803;51.666;7.630;2024-01-15T01:13:16;99511.78;;;5.33;59.32
7524;BME280;3803;51.666;7.630;2024-01-15T01:13:37;99523.63;;;5.25;58.90
7524;BME280;3803;51.666;7.630;2024-01-15T01:13:58;99529.81;;;5.30;59.43
7524;BME280;3803;51.666;7.630;2024-01-15T01:14:18;99522.00;;;5.27;59.03
7524;BME280;3803;51.666;7.630;2024-01-15T01:14:39;99516.97;;;5.33;59.30
7524;BME280;3803;51.666;7.630;2024-01-15T01:14:59;99523.81;;;5.31;59.33
7524;BME280;3803;51.666;7.630;2024-01-15T01:15:20;99509.06;;;5.27;59.23
7524;BME280;3803;51.666;7.630;2024-01-15T01:15:41;99515.19;;;5.30;59.59
7524;BME280;3803;51.666;7.630;2024-01-15T01:16:02;99513.56;;;5.34;59.22
7524;BME280;3803;51.666;7.630;2024-01-15T01:16:23;99525.66;;;5.35;59.25
7524;BME280;3803;51.666;7.630;2024-01-15T01:16:44;99526.44;;;5.32;59.32
7524;BME280;3803;51.666;7.630;2024-01-15T01:17:04;99520.31;;;5.29;59.30
7524;BME280;3803;51.666;7.630;2024-01-15T01:17:25;99529.16;;;5.37;59.07
7524;BME280;3803;51.666;7.630;2024-01-15T01:17:45;99517.63;;;5.26;59.36
7524;BME280;3803;51.666;7.630;2024-01-15T01:18:06;99521.34;;;5.34;59.39
7524;BME280;3803;51.666;7.630;2024-01-15T01:18:27;99509.84;;;5.26;59.59
7524;BME280;3803;51.666;7.630;2024-01-15T01:18:47;99525.66;;;5.35;59.62
7524;BME280;3803;51.666;7.630;2024-01-15T01:19:08;99514.34;;;5.31;59.35
7524;BME280;3803;51.666;7.630;2024-01-15T01:19:29;99524.84;;;5.38;59.32
7524;BME280;3803;51.666;7.630;2024-01-15T01:19:50;99520.44;;;5.33;59.24
7524;BME280;3803;51.666;7.630;2024-01-15T01:20:11;99524.00;;;5.37;59.11
7524;BME280;3803;51.666;7.630;2024-01-15T01:20:31;99515.41;;;5.38;59.61
7524;BME280;3803;51.666;7.630;2024-01-15T01:20:52;99513.66;;;5.37;59.31
7524;BME280;3803;51.666;7.630;2024-01-15T01:21:12;99516.25;;;5.37;59.33
7524;BME280;3803;51.666;7.630;2024-01-15T01:21:33;99518.81;;;5.37;59.15
7524;BME280;3803;51.666;7.630;2024-01-15T01:21:54;99522.44;;;5.42;59.15
7524;BME280;3803;51.666;7.630;2024-01-15T01:22:14;99512.69;;;5.33;59.19
7524;BME280;3803;51.666;7.630;2024-01-15T01:22:35;99522.44;;;5.42;59.32
7524;BME280;3803;51.666;7.630;2024-01-15T01:22:55;99505.94;;;5.39;59.18
7524;BME280;3803;51.666;7.630;2024-01-15T01:23:16;99510.31;;;5.41;59.27
7524;BME280;3803;51.666;7.630;2024-01-15T01:23:36;99513.97;;;5.48;59.32
7524;BME280;3803;51.666;7.630;2024-01-15T01:23:57;99509.50;;;5.42;59.22
7524;BME280;3803;51.666;7.630;2024-01-15T01:24:18;99513.00;;;5.44;59.04
7524;BME280;3803;51.666;7.630;2024-01-15T01:24:38;99508.56;;;5.40;59.37
7524;BME280;3803;51.666;7.630;2024-01-15T01:24:59;99504.97;;;5.35;59.26
7524;BME280;3803;51.666;7.630;2024-01-15T01:25:19;99499.88;;;5.38;59.42
7524;BME280;3803;51.666;7.630;2024-01-15T01:25:40;99496.44;;;5.39;59.03
7524;BME280;3803;51.666;7.630;2024-01-15T01:26:00;99499.00;;;5.38;58.94
7524;BME280;3803;51.666;7.630;2024-01-15T01:26:21;99503.38;;;5.40;59.08
7524;BME280;3803;51.666;7.630;2024-01-15T01:26:41;99502.47;;;5.38;59.12
7524;BME280;3803;51.666;7.630;2024-01-15T01:27:02;99509.44;;;5.41;59.01
7524;BME280;3803;51.666;7.630;2024-01-15T01:27:23;99508.47;;;5.37;58.98
7524;BME280;3803;51.666;7.630;2024-01-15T01:27:43;99503.22;;;5.34;59.03
7524;BME280;3803;51.666;7.630;2024-01-15T01:28:04;99507.56;;;5.35;58.93
7524;BME280;3803;51.666;7.630;2024-01-15T01:28:25;99506.72;;;5.36;59.21
7524;BME280;3803;51.666;7.630;2024-01-15T01:28:45;99502.28;;;5.32;59.11
7524;BME280;3803;51.666;7.630;2024-01-15T01:29:06;99511.78;;;5.33;59.04
7524;BME280;3803;51.666;7.630;2024-01-15T01:29:27;99497.88;;;5.29;59.10
7524;BME280;3803;51.666;7.630;2024-01-15T01:29:47;99496.13;;;5.28;58.81
7524;BME280;3803;51.666;7.630;2024-01-15T01:30:08;99502.25;;;5.30;59.10
7524;BME280;3803;51.666;7.630;2024-01-15T01:30:29;99493.59;;;5.30;59.07
7524;BME280;3803;51.666;7.630;2024-01-15T01:30:49;99495.31;;;5.29;59.09
7524;BME280;3803;51.666;7.630;2024-01-15T01:31:10;99503.03;;;5.28;58.80
7524;BME280;3803;51.666;7.630;2024-01-15T01:31:30;99499.63;;;5.29;59.00
7524;BME280;3803;51.666;7.630;2024-01-15T01:31:51;99510.03;;;5.32;59.17
7524;BME280;3803;51.666;7.630;2024-01-15T01:32:12;99497.59;;;5.18;59.02
7524;BME280;3803;51.666;7.630;2024-01-15T01:32:32;99503.59;;;5.17;58.92
7524;BME280;3803;51.666;7.630;2024-01-15T01:32:53;99491.41;;;5.13;59.01
7524;BME280;3803;51.666;7.630;2024-01-15T01:33:13;99490.50;;;5.11;59.10
7524;BME280;3803;51.666;7.630;2024-01-15T01:33:34;99493.75;;;5.05;59.14
7524;BME280;3803;51.666;7.630;2024-01-15T01:33:54;99500.72;;;5.06;59.27
7524;BME280;3803;51.666;7.630;2024-01-15T01:34:16;99506.03;;;5.13;59.42
7524;BME280;3803;51.666;7.630;2024-01-15T01:34:40;99501.69;;;5.10;59.09
7524;BME280;3803;51.666;7.630;2024-01-15T01:35:04;99497.22;;;5.06;59.46
7524;BME280;3803;51.666;7.630;2024-01-15T01:35:24;99501.38;;;5.01;59.35
7524;BME280;3803;51.666;7.630;2024-01-15T01:35:45;99483.97;;;4.95;59.55
7524;BME280;3803;51.666;7.630;2024-01-15T01:36:08;99493.47;;;4.95;59.34
7524;BME280;3803;51.666;7.630;2024-01-15T01:36:31;99487.53;;;4.99;59.74
7524;BME280;3803;51.666;7.630;2024-01-15T01:36:51;99497.09;;;5.01;59.37
7524;BME280;3803;51.666;7.630;2024-01-15T01:37:12;99492.66;;;4.97;59.31
7524;BME280;3803;51.666;7.630;2024-01-15T01:37:36;99497.69;;;4.92;59.61
7524;BME280;3803;51.666;7.630;2024-01-15T01:37:56;99500.38;;;4.96;59.69
7524;BME280;3803;51.666;7.630;2024-01-15T01:38:17;99496.06;;;4.96;59.49
7524;BME280;3803;51.666;7.630;2024-01-15T01:38:38;99494.25;;;4.93;59.48
7524;BME280;3803;51.666;7.630;2024-01-15T01:38:58;99486.63;;;4.97;59.55
7524;BME280;3803;51.666;7.630;2024-01-15T01:39:19;99497.03;;;5.00;59.43
7524;BME280;3803;51.666;7.630;2024-01-15T01:39:40;99492.78;;;5.02;59.70
7524;BME280;3803;51.666;7.630;2024-01-15T01:40:01;99493.53;;;4.98;59.58
7524;BME280;3803;51.666;7.630;2024-01-15T01:40:22;99507.66;;;5.09;59.33
7524;BME280;3803;51.666;7.630;2024-01-15T01:40:42;99504.06;;;5.04;59.42
7524;BME280;3803;51.666;7.630;2024-01-15T01:41:03;99505.06;;;5.09;59.21
7524;BME280;3803;51.666;7.630;2024-01-15T01:41:24;99491.03;;;5.01;59.45
7524;BME280;3803;51.666;7.630;2024-01-15T01:41:44;99492.69;;;4.99;59.43
7524;BME280;3803;51.666;7.630;2024-01-15T01:42:05;99499.75;;;5.04;59.35
7524;BME280;3803;51.666;7.630;2024-01-15T01:42:25;99495.28;;;4.99;59.44
7524;BME280;3803;51.666;7.630;2024-01-15T01:42:46;99491.78;;;4.97;59.57
7524;BME280;3803;51.666;7.630;2024-01-15T01:43:09;99505.00;;;5.06;59.41
7524;BME280;3803;51.666;7.630;2024-01-15T01:43:29;99496.19;;;4.99;59.24
7524;BME280;3803;51.666;7.630;2024-01-15T01:43:50;99488.44;;;5.01;59.16
7524;BME280;3803;51.666;7.630;2024-01-15T01:44:10;99498.06;;;5.05;59.36
7524;BME280;3803;51.666;7.630;2024-01-15T01:44:31;99492.91;;;5.05;59.39
7524;BME280;3803;51.666;7.630;2024-01-15T01:44:52;99512.47;;;4.97;59.22
7524;BME280;3803;51.666;7.630;2024-01-15T01:45:13;99506.69;;;5.05;59.49
7524;BME280;3803;51.666;7.630;2024-01-15T01:45:33;99489.09;;;4.93;59.45
7524;BME280;3803;51.666;7.630;2024-01-15T01:45:56;99505.44;;;4.92;59.52
7524;BME280;3803;51.666;7.630;2024-01-15T01:46:18;99510.16;;;5.06;59.59
7524;BME280;3803;51.666;7.630;2024-01-15T01:46:39;99500.47;;;4.99;59.62
7524;BME280;3803;51.666;7.630;2024-01-15T01:47:00;99506.94;;;5.13;59.75
7524;BME280;3803;51.666;7.630;2024-01-15T01:47:21;99500.72;;;5.06;59.55
7524;BME280;3803;51.666;7.630;2024-01-15T01:47:42;99502.59;;;5.12;59.36
7524;BME280;3803;51.666;7.630;2024-01-15T01:48:03;99512.03;;;5.10;59.63
7524;BME280;3803;51.666;7.630;2024-01-15T01:48:25;99512.94;;;5.12;59.71
7524;BME280;3803;51.666;7.630;2024-01-15T01:48:48;99508.63;;;5.13;59.46
7524;BME280;3803;51.666;7.630;2024-01-15T01:49:09;99505.38;;;5.18;59.64
7524;BME280;3803;51.666;7.630;2024-01-15T01:49:30;99504.41;;;5.16;59.69
7524;BME280;3803;51.666;7.630;2024-01-15T01:49:51;99526.28;;;5.26;59.43
7524;BME280;3803;51.666;7.630;2024-01-15T01:50:12;99515.13;;;5.29;59.55
7524;BME280;3803;51.666;7.630;2024-01-15T01:50:33;99510.66;;;5.23;59.35
7524;BME280;3803;51.666;7.630;2024-01-15T01:50:57;99502.06;;;5.24;59.51
7524;BME280;3803;51.666;7.630;2024-01-15T01:51:18;99509.84;;;5.26;59.18
7524;BME280;3803;51.666;7.630;2024-01-15T01:51:40;99522.00;;;5.27;59.43
7524;BME280;3803;51.666;7.630;2024-01-15T01:52:02;99516.88;;;5.30;59.53
7524;BME280;3803;51.666;7.630;2024-01-15T01:52:24;99504.47;;;5.18;59.19
7524;BME280;3803;51.666;7.630;2024-01-15T01:52:45;99511.34;;;5.17;59.51
7524;BME280;3803;51.666;7.630;2024-01-15T01:53:06;99506.34;;;5.22;59.29
7524;BME280;3803;51.666;7.630;2024-01-15T01:53:27;99520.31;;;5.29;59.57
7524;BME280;3803;51.666;7.630;2024-01-15T01:53:50;99496.91;;;5.24;59.17
7524;BME280;3803;51.666;7.630;2024-01-15T01:54:11;99500.47;;;5.29;59.38
7524;BME280;3803;51.666;7.630;2024-01-15T01:54:34;99501.38;;;5.30;59.31
7524;BME280;3803;51.666;7.630;2024-01-15T01:54:56;99504.91;;;5.33;59.04
7524;BME280;3803;51.666;7.630;2024-01-15T01:55:18;99508.41;;;5.36;59.14
7524;BME280;3803;51.666;7.630;2024-01-15T01:55:39;99498.84;;;5.33;58.67
7524;BME280;3803;51.666;7.630;2024-01-15T01:56:00;99503.22;;;5.34;58.84
7524;BME280;3803;51.666;7.630;2024-01-15T01:56:21;99507.59;;;5.37;58.81
7524;BME280;3803;51.666;7.630;2024-01-15T01:56:42;99495.22;;;5.26;58.97
7524;BME280;3803;51.666;7.630;2024-01-15T01:57:03;99504.59;;;5.23;58.68
7524;BME280;3803;51.666;7.630;2024-01-15T01:57:25;99505.75;;;5.32;59.33
7524;BME280;3803;51.666;7.630;2024-01-15T01:57:46;99505.53;;;5.25;59.05
7524;BME280;3803;51.666;7.630;2024-01-15T01:58:07;99502.19;;;5.29;58.89
7524;BME280;3803;51.666;7.630;2024-01-15T01:58:28;99502.09;;;5.26;58.95
7524;BME280;3803;51.666;7.630;2024-01-15T01:58:49;99510.81;;;5.28;59.13
7524;BME280;3803;51.666;7.630;2024-01-15T01:59:11;99503.13;;;5.31;59.23
7524;BME280;3803;51.666;7.630;2024-01-15T01:59:33;99497.88;;;5.28;59.11
7524;BME280;3803;51.666;7.630;2024-01-15T01:59:54;99504.88;;;5.32;59.17
7524;BME280;3803;51.666;7.630;2024-01-15T02:00:16;99505.56;;;5.26;59.30
7524;BME280;3803;51.666;7.630;2024-01-15T02:00:37;99516.16;;;5.34;59.21
7524;BME280;3803;51.666;7.630;2024-01-15T02:00:58;99508.47;;;5.37;59.22
7524;BME280;3803;51.666;7.630;2024-01-15T02:01:19;99510.03;;;5.30;59.17
7524;BME280;3803;51.666;7.630;2024-01-15T02:01:40;99513.47;;;5.31;59.04
7524;BME280;3803;51.666;7.630;2024-01-15T02:02:03;99506.59;;;5.31;59.13
7524;BME280;3803;51.666;7.630;2024-01-15T02:02:24;99504.75;;;5.27;59.01
7524;BME280;3803;51.666;7.630;2024-01-15T02:02:45;99497.88;;;5.28;59.43
7524;BME280;3803;51.666;7.630;2024-01-15T02:03:06;99499.81;;;5.35;59.12
7524;BME280;3803;51.666;7.630;2024-01-15T02:03:27;99507.31;;;5.27;58.97
7524;BME280;3803;51.666;7.630;2024-01-15T02:03:48;99499.44;;;5.23;59.24
7524;BME280;3803;51.666;7.630;2024-01-15T02:04:09;99511.63;;;5.27;59.40
7524;BME280;3803;51.666;7.630;2024-01-15T02:04:31;99515.03;;;5.26;59.05